Who's Online

We have 4 guests online

GK Weather

An error occured during parsing XML data. Please try again.

Aviation WX

[source: ADDS]
METAR
KIAD 020352Z 15005KT 10SM -RA SCT120 OVC140 19/15 A3018 RMK AO2 RAB24 SLP217 P0000 T01890150 =
TAF
KIAD 012340Z 0200/0306 16003KT P6SM SCT030 BKN130 OVC180 FM020400 13004KT P6SM SCT020 OVC035 FM020700 VRB03KT P6SM SCT008 OVC015 FM020900 VRB03KT P6SM -SHRA OVC008 FM021200 03005KT P6SM -SHRA BKN008 OVC015 FM021600 06005KT P6SM SCT020 BKN035 =
SR / SS: 23:55 / 14:01 UTC (Washington-Dulles 2014-08-01)

JoomlaWatch Agent

Home Links
We are regularly out on the Web. When we find a great site we list it.